sensor_id;sensor_type;location;lat;lon;timestamp;pressure;altitude;pressure_sealevel;temperature
68939;BMP180;59064;45.294;11.816;2022-08-20T00:00:50;100878.80;;;19.60
68939;BMP180;59064;45.294;11.816;2022-08-20T00:03:24;100878.40;;;19.60
68939;BMP180;59064;45.294;11.816;2022-08-20T00:06:11;100880.80;;;19.60
68939;BMP180;59064;45.294;11.816;2022-08-20T00:08:39;100881.20;;;19.60
68939;BMP180;59064;45.294;11.816;2022-08-20T00:11:08;100876.60;;;19.60
68939;BMP180;59064;45.294;11.816;2022-08-20T00:13:39;100872.00;;;19.62
68939;BMP180;59064;45.294;11.816;2022-08-20T00:16:05;100868.40;;;19.66
68939;BMP180;59064;45.294;11.816;2022-08-20T00:18:32;100875.00;;;19.62
68939;BMP180;59064;45.294;11.816;2022-08-20T00:21:04;100881.40;;;19.60
68939;BMP180;59064;45.294;11.816;2022-08-20T00:23:40;100885.80;;;19.50
68939;BMP180;59064;45.294;11.816;2022-08-20T00:26:07;100889.20;;;19.38
68939;BMP180;59064;45.294;11.816;2022-08-20T00:28:35;100891.40;;;19.28
68939;BMP180;59064;45.294;11.816;2022-08-20T00:31:09;100896.00;;;19.20
68939;BMP180;59064;45.294;11.816;2022-08-20T00:33:36;100893.80;;;19.10
68939;BMP180;59064;45.294;11.816;2022-08-20T00:36:04;100890.20;;;19.10
68939;BMP180;59064;45.294;11.816;2022-08-20T00:38:41;100885.00;;;19.10
68939;BMP180;59064;45.294;11.816;2022-08-20T00:41:10;100878.40;;;19.10
68939;BMP180;59064;45.294;11.816;2022-08-20T00:43:46;100879.00;;;19.10
68939;BMP180;59064;45.294;11.816;2022-08-20T00:46:15;100879.40;;;19.10
68939;BMP180;59064;45.294;11.816;2022-08-20T00:48:43;100872.00;;;19.10
68939;BMP180;59064;45.294;11.816;2022-08-20T00:51:23;100870.80;;;19.10
68939;BMP180;59064;45.294;11.816;2022-08-20T00:53:55;100865.80;;;19.20
68939;BMP180;59064;45.294;11.816;2022-08-20T00:56:22;100864.80;;;19.20
68939;BMP180;59064;45.294;11.816;2022-08-20T00:58:48;100869.40;;;19.20
68939;BMP180;59064;45.294;11.816;2022-08-20T01:01:15;100867.20;;;19.20
68939;BMP180;59064;45.294;11.816;2022-08-20T01:03:41;100867.80;;;19.20
68939;BMP180;59064;45.294;11.816;2022-08-20T01:06:07;100863.60;;;19.10
68939;BMP180;59064;45.294;11.816;2022-08-20T01:08:37;100857.80;;;19.10
68939;BMP180;59064;45.294;11.816;2022-08-20T01:11:03;100857.60;;;19.10
68939;BMP180;59064;45.294;11.816;2022-08-20T01:13:36;100857.80;;;19.10
68939;BMP180;59064;45.294;11.816;2022-08-20T01:16:07;100864.60;;;19.10
68939;BMP180;59064;45.294;11.816;2022-08-20T01:18:35;100868.80;;;19.00
68939;BMP180;59064;45.294;11.816;2022-08-20T01:21:03;100875.00;;;19.00
68939;BMP180;59064;45.294;11.816;2022-08-20T01:24:19;100868.00;;;18.90
68939;BMP180;59064;45.294;11.816;2022-08-20T01:26:47;100870.20;;;18.86
68939;BMP180;59064;45.294;11.816;2022-08-20T01:29:24;100865.80;;;18.80
68939;BMP180;59064;45.294;11.816;2022-08-20T01:31:53;100864.00;;;18.70
68939;BMP180;59064;45.294;11.816;2022-08-20T01:34:25;100859.40;;;18.70
68939;BMP180;59064;45.294;11.816;2022-08-20T01:36:53;100852.20;;;18.70
68939;BMP180;59064;45.294;11.816;2022-08-20T01:39:25;100848.40;;;18.70
68939;BMP180;59064;45.294;11.816;2022-08-20T01:44:41;100851.80;;;18.72
68939;BMP180;59064;45.294;11.816;2022-08-20T01:47:18;100849.60;;;18.80
68939;BMP180;59064;45.294;11.816;2022-08-20T01:49:49;100842.40;;;18.80
68939;BMP180;59064;45.294;11.816;2022-08-20T01:52:39;100841.60;;;18.80
68939;BMP180;59064;45.294;11.816;2022-08-20T01:55:08;100842.60;;;18.80
68939;BMP180;59064;45.294;11.816;2022-08-20T01:57:35;100843.80;;;18.80
68939;BMP180;59064;45.294;11.816;2022-08-20T02:00:05;100841.20;;;18.80
68939;BMP180;59064;45.294;11.816;2022-08-20T02:02:32;100843.80;;;18.80
68939;BMP180;59064;45.294;11.816;2022-08-20T02:04:59;100844.20;;;18.80
68939;BMP180;59064;45.294;11.816;2022-08-20T02:07:25;100839.80;;;18.70
68939;BMP180;59064;45.294;11.816;2022-08-20T02:09:51;100844.40;;;18.70
68939;BMP180;59064;45.294;11.816;2022-08-20T02:12:17;100846.20;;;18.70
68939;BMP180;59064;45.294;11.816;2022-08-20T02:14:47;100846.20;;;18.74
68939;BMP180;59064;45.294;11.816;2022-08-20T02:17:15;100847.20;;;18.72
68939;BMP180;59064;45.294;11.816;2022-08-20T02:19:45;100843.20;;;18.70
68939;BMP180;59064;45.294;11.816;2022-08-20T02:24:45;100846.20;;;18.60
68939;BMP180;59064;45.294;11.816;2022-08-20T02:27:11;100845.40;;;18.60
68939;BMP180;59064;45.294;11.816;2022-08-20T02:29:37;100844.20;;;18.60
68939;BMP180;59064;45.294;11.816;2022-08-20T02:32:03;100839.40;;;18.60
68939;BMP180;59064;45.294;11.816;2022-08-20T02:34:30;100849.20;;;18.60
68939;BMP180;59064;45.294;11.816;2022-08-20T02:36:59;100846.60;;;18.60
68939;BMP180;59064;45.294;11.816;2022-08-20T02:39:25;100845.80;;;18.60
68939;BMP180;59064;45.294;11.816;2022-08-20T02:41:52;100844.60;;;18.58
68939;BMP180;59064;45.294;11.816;2022-08-20T02:44:18;100837.00;;;18.50
68939;BMP180;59064;45.294;11.816;2022-08-20T02:46:47;100834.00;;;18.40
68939;BMP180;59064;45.294;11.816;2022-08-20T02:49:17;100833.00;;;18.34
68939;BMP180;59064;45.294;11.816;2022-08-20T02:51:44;100832.40;;;18.30
68939;BMP180;59064;45.294;11.816;2022-08-20T02:54:10;100834.80;;;18.30
68939;BMP180;59064;45.294;11.816;2022-08-20T02:56:36;100839.00;;;18.30
68939;BMP180;59064;45.294;11.816;2022-08-20T02:59:02;100835.80;;;18.30
68939;BMP180;59064;45.294;11.816;2022-08-20T03:01:28;100841.00;;;18.30
68939;BMP180;59064;45.294;11.816;2022-08-20T03:03:53;100843.00;;;18.30
68939;BMP180;59064;45.294;11.816;2022-08-20T03:06:21;100841.40;;;18.20
68939;BMP180;59064;45.294;11.816;2022-08-20T03:08:48;100837.80;;;18.10
68939;BMP180;59064;45.294;11.816;2022-08-20T03:11:14;100835.80;;;18.10
68939;BMP180;59064;45.294;11.816;2022-08-20T03:13:39;100832.00;;;18.10
68939;BMP180;59064;45.294;11.816;2022-08-20T03:16:05;100833.20;;;18.00
68939;BMP180;59064;45.294;11.816;2022-08-20T03:18:40;100828.20;;;17.98
68939;BMP180;59064;45.294;11.816;2022-08-20T03:21:07;100825.80;;;17.90
68939;BMP180;59064;45.294;11.816;2022-08-20T03:23:34;100821.80;;;17.90
68939;BMP180;59064;45.294;11.816;2022-08-20T03:26:01;100819.40;;;17.90
68939;BMP180;59064;45.294;11.816;2022-08-20T03:28:27;100814.00;;;17.90
68939;BMP180;59064;45.294;11.816;2022-08-20T03:30:53;100810.80;;;17.94
68939;BMP180;59064;45.294;11.816;2022-08-20T03:33:20;100814.00;;;18.00
68939;BMP180;59064;45.294;11.816;2022-08-20T03:35:47;100817.60;;;18.00
68939;BMP180;59064;45.294;11.816;2022-08-20T03:38:15;100815.80;;;18.06
68939;BMP180;59064;45.294;11.816;2022-08-20T03:40:41;100813.40;;;18.10
68939;BMP180;59064;45.294;11.816;2022-08-20T03:43:08;100816.00;;;18.18
68939;BMP180;59064;45.294;11.816;2022-08-20T03:45:35;100821.40;;;18.20
68939;BMP180;59064;45.294;11.816;2022-08-20T03:48:02;100819.40;;;18.20
68939;BMP180;59064;45.294;11.816;2022-08-20T03:50:29;100823.00;;;18.20
68939;BMP180;59064;45.294;11.816;2022-08-20T03:52:55;100822.40;;;18.18
68939;BMP180;59064;45.294;11.816;2022-08-20T03:55:22;100819.20;;;18.20
68939;BMP180;59064;45.294;11.816;2022-08-20T03:57:52;100820.20;;;18.18
68939;BMP180;59064;45.294;11.816;2022-08-20T04:00:22;100823.20;;;18.10
68939;BMP180;59064;45.294;11.816;2022-08-20T04:02:48;100828.40;;;18.10
68939;BMP180;59064;45.294;11.816;2022-08-20T04:05:14;100822.40;;;18.10
68939;BMP180;59064;45.294;11.816;2022-08-20T04:07:40;100820.20;;;18.10
68939;BMP180;59064;45.294;11.816;2022-08-20T04:10:09;100824.00;;;18.10
68939;BMP180;59064;45.294;11.816;2022-08-20T04:12:36;100820.80;;;18.10
68939;BMP180;59064;45.294;11.816;2022-08-20T04:15:08;100817.20;;;18.10
68939;BMP180;59064;45.294;11.816;2022-08-20T04:17:36;100822.00;;;18.10
68939;BMP180;59064;45.294;11.816;2022-08-20T04:20:03;100822.00;;;18.10
68939;BMP180;59064;45.294;11.816;2022-08-20T04:22:33;100830.20;;;18.10
68939;BMP180;59064;45.294;11.816;2022-08-20T04:24:58;100830.60;;;18.00
68939;BMP180;59064;45.294;11.816;2022-08-20T04:27:23;100837.60;;;18.00
68939;BMP180;59064;45.294;11.816;2022-08-20T04:29:49;100840.40;;;18.00
68939;BMP180;59064;45.294;11.816;2022-08-20T04:32:14;100837.80;;;18.00
68939;BMP180;59064;45.294;11.816;2022-08-20T04:34:40;100837.00;;;18.00
68939;BMP180;59064;45.294;11.816;2022-08-20T04:37:06;100841.60;;;18.00
68939;BMP180;59064;45.294;11.816;2022-08-20T04:39:31;100848.20;;;18.00
68939;BMP180;59064;45.294;11.816;2022-08-20T04:41:57;100846.00;;;18.00
68939;BMP180;59064;45.294;11.816;2022-08-20T04:44:23;100850.00;;;18.00
68939;BMP180;59064;45.294;11.816;2022-08-20T04:46:49;100853.40;;;18.10
68939;BMP180;59064;45.294;11.816;2022-08-20T04:49:15;100857.00;;;18.10
68939;BMP180;59064;45.294;11.816;2022-08-20T04:51:41;100856.20;;;18.12
68939;BMP180;59064;45.294;11.816;2022-08-20T04:54:06;100849.80;;;18.20
68939;BMP180;59064;45.294;11.816;2022-08-20T04:56:33;100850.00;;;18.20
68939;BMP180;59064;45.294;11.816;2022-08-20T04:59:04;100852.60;;;18.30
68939;BMP180;59064;45.294;11.816;2022-08-20T05:01:29;100853.00;;;18.40
68939;BMP180;59064;45.294;11.816;2022-08-20T05:03:56;100862.60;;;18.50
68939;BMP180;59064;45.294;11.816;2022-08-20T05:06:25;100862.00;;;18.60
68939;BMP180;59064;45.294;11.816;2022-08-20T05:08:53;100863.80;;;18.70
68939;BMP180;59064;45.294;11.816;2022-08-20T05:11:20;100863.40;;;18.90
68939;BMP180;59064;45.294;11.816;2022-08-20T05:13:47;100865.40;;;19.10
68939;BMP180;59064;45.294;11.816;2022-08-20T05:16:13;100864.60;;;19.28
68939;BMP180;59064;45.294;11.816;2022-08-20T05:18:39;100866.00;;;19.30
68939;BMP180;59064;45.294;11.816;2022-08-20T05:21:05;100863.40;;;19.30
68939;BMP180;59064;45.294;11.816;2022-08-20T05:23:36;100863.20;;;19.50
68939;BMP180;59064;45.294;11.816;2022-08-20T05:26:03;100857.60;;;19.70
68939;BMP180;59064;45.294;11.816;2022-08-20T05:28:33;100861.40;;;19.98
68939;BMP180;59064;45.294;11.816;2022-08-20T05:30:59;100861.60;;;20.10
68939;BMP180;59064;45.294;11.816;2022-08-20T05:33:26;100864.40;;;20.22
68939;BMP180;59064;45.294;11.816;2022-08-20T05:35:53;100862.60;;;20.36
68939;BMP180;59064;45.294;11.816;2022-08-20T05:38:22;100865.40;;;20.50
68939;BMP180;59064;45.294;11.816;2022-08-20T05:40:48;100863.40;;;20.60
68939;BMP180;59064;45.294;11.816;2022-08-20T05:43:14;100861.80;;;20.68
68939;BMP180;59064;45.294;11.816;2022-08-20T05:45:41;100858.00;;;20.72
68939;BMP180;59064;45.294;11.816;2022-08-20T05:48:10;100857.00;;;20.80
68939;BMP180;59064;45.294;11.816;2022-08-20T05:50:37;100857.20;;;20.90
68939;BMP180;59064;45.294;11.816;2022-08-20T05:53:04;100862.20;;;21.08
68939;BMP180;59064;45.294;11.816;2022-08-20T05:55:29;100869.00;;;21.10
68939;BMP180;59064;45.294;11.816;2022-08-20T05:58:00;100865.00;;;21.10
68939;BMP180;59064;45.294;11.816;2022-08-20T06:00:27;100862.80;;;21.10
68939;BMP180;59064;45.294;11.816;2022-08-20T06:02:53;100859.60;;;21.10
68939;BMP180;59064;45.294;11.816;2022-08-20T06:05:37;100858.60;;;21.10
68939;BMP180;59064;45.294;11.816;2022-08-20T06:08:04;100857.60;;;21.10
68939;BMP180;59064;45.294;11.816;2022-08-20T06:10:30;100854.60;;;21.10
68939;BMP180;59064;45.294;11.816;2022-08-20T06:12:56;100856.20;;;21.10
68939;BMP180;59064;45.294;11.816;2022-08-20T06:15:21;100859.60;;;21.10
68939;BMP180;59064;45.294;11.816;2022-08-20T06:17:47;100862.00;;;21.10
68939;BMP180;59064;45.294;11.816;2022-08-20T06:20:12;100860.80;;;21.20
68939;BMP180;59064;45.294;11.816;2022-08-20T06:22:39;100869.40;;;21.20
68939;BMP180;59064;45.294;11.816;2022-08-20T06:25:05;100885.00;;;21.02
68939;BMP180;59064;45.294;11.816;2022-08-20T06:27:31;100882.60;;;20.90
68939;BMP180;59064;45.294;11.816;2022-08-20T06:29:57;100873.20;;;20.90
68939;BMP180;59064;45.294;11.816;2022-08-20T06:32:23;100874.40;;;21.00
68939;BMP180;59064;45.294;11.816;2022-08-20T06:34:50;100878.80;;;21.10
68939;BMP180;59064;45.294;11.816;2022-08-20T06:37:25;100889.80;;;21.30
68939;BMP180;59064;45.294;11.816;2022-08-20T06:39:51;100893.20;;;21.46
68939;BMP180;59064;45.294;11.816;2022-08-20T06:42:18;100881.60;;;21.74
68939;BMP180;59064;45.294;11.816;2022-08-20T06:44:44;100884.20;;;22.10
68939;BMP180;59064;45.294;11.816;2022-08-20T06:47:17;100892.40;;;22.32
68939;BMP180;59064;45.294;11.816;2022-08-20T06:49:45;100895.80;;;22.60
68939;BMP180;59064;45.294;11.816;2022-08-20T06:52:12;100901.20;;;22.90
68939;BMP180;59064;45.294;11.816;2022-08-20T06:54:42;100903.00;;;23.00
68939;BMP180;59064;45.294;11.816;2022-08-20T06:57:08;100903.60;;;23.20
68939;BMP180;59064;45.294;11.816;2022-08-20T06:59:33;100901.80;;;23.36
68939;BMP180;59064;45.294;11.816;2022-08-20T07:01:59;100905.20;;;23.50
68939;BMP180;59064;45.294;11.816;2022-08-20T07:04:25;100900.80;;;23.72
68939;BMP180;59064;45.294;11.816;2022-08-20T07:06:54;100901.20;;;24.10
68939;BMP180;59064;45.294;11.816;2022-08-20T07:09:22;100900.00;;;24.56
68939;BMP180;59064;45.294;11.816;2022-08-20T07:11:48;100903.40;;;24.90
68939;BMP180;59064;45.294;11.816;2022-08-20T07:14:15;100904.80;;;25.10
68939;BMP180;59064;45.294;11.816;2022-08-20T07:16:41;100905.00;;;25.48
68939;BMP180;59064;45.294;11.816;2022-08-20T07:19:07;100905.40;;;25.90
68939;BMP180;59064;45.294;11.816;2022-08-20T07:21:33;100908.40;;;26.20
68939;BMP180;59064;45.294;11.816;2022-08-20T07:23:58;100906.60;;;26.30
68939;BMP180;59064;45.294;11.816;2022-08-20T07:26:24;100906.20;;;26.30
68939;BMP180;59064;45.294;11.816;2022-08-20T07:28:49;100903.20;;;26.40
68939;BMP180;59064;45.294;11.816;2022-08-20T07:31:15;100906.40;;;26.50
68939;BMP180;59064;45.294;11.816;2022-08-20T07:34:00;100909.80;;;26.54
68939;BMP180;59064;45.294;11.816;2022-08-20T07:36:25;100915.60;;;26.60
68939;BMP180;59064;45.294;11.816;2022-08-20T07:38:52;100918.40;;;26.50
68939;BMP180;59064;45.294;11.816;2022-08-20T07:41:19;100921.00;;;26.44
68939;BMP180;59064;45.294;11.816;2022-08-20T07:43:45;100921.40;;;26.30
68939;BMP180;59064;45.294;11.816;2022-08-20T07:46:14;100920.20;;;26.10
68939;BMP180;59064;45.294;11.816;2022-08-20T07:48:43;100921.60;;;26.10
68939;BMP180;59064;45.294;11.816;2022-08-20T07:51:15;100923.60;;;26.10
68939;BMP180;59064;45.294;11.816;2022-08-20T07:53:43;100925.60;;;26.00
68939;BMP180;59064;45.294;11.816;2022-08-20T07:56:11;100928.00;;;26.00
68939;BMP180;59064;45.294;11.816;2022-08-20T07:58:43;100927.20;;;25.90
68939;BMP180;59064;45.294;11.816;2022-08-20T08:01:16;100928.20;;;25.80
68939;BMP180;59064;45.294;11.816;2022-08-20T08:03:41;100927.00;;;25.90
68939;BMP180;59064;45.294;11.816;2022-08-20T08:06:07;100921.80;;;26.10
68939;BMP180;59064;45.294;11.816;2022-08-20T08:08:35;100920.20;;;26.40
68939;BMP180;59064;45.294;11.816;2022-08-20T08:11:09;100918.00;;;26.50
68939;BMP180;59064;45.294;11.816;2022-08-20T08:13:38;100926.80;;;26.50
68939;BMP180;59064;45.294;11.816;2022-08-20T08:16:07;100931.00;;;26.50
68939;BMP180;59064;45.294;11.816;2022-08-20T08:18:41;100937.40;;;26.70
68939;BMP180;59064;45.294;11.816;2022-08-20T08:21:07;100942.00;;;27.08
68939;BMP180;59064;45.294;11.816;2022-08-20T08:23:37;100944.00;;;27.40
68939;BMP180;59064;45.294;11.816;2022-08-20T08:26:05;100940.80;;;27.76
68939;BMP180;59064;45.294;11.816;2022-08-20T08:28:30;100946.00;;;28.00
68939;BMP180;59064;45.294;11.816;2022-08-20T08:30:56;100947.80;;;28.10
68939;BMP180;59064;45.294;11.816;2022-08-20T08:33:25;100945.60;;;27.90
68939;BMP180;59064;45.294;11.816;2022-08-20T08:36:06;100943.80;;;27.90
68939;BMP180;59064;45.294;11.816;2022-08-20T08:38:44;100945.20;;;28.00
68939;BMP180;59064;45.294;11.816;2022-08-20T08:43:47;100940.60;;;28.10
68939;BMP180;59064;45.294;11.816;2022-08-20T08:46:17;100944.40;;;28.20
68939;BMP180;59064;45.294;11.816;2022-08-20T08:48:45;100947.40;;;28.32
68939;BMP180;59064;45.294;11.816;2022-08-20T08:51:15;100949.60;;;28.42
68939;BMP180;59064;45.294;11.816;2022-08-20T08:53:45;100949.60;;;28.54
68939;BMP180;59064;45.294;11.816;2022-08-20T08:56:13;100952.60;;;28.60
68939;BMP180;59064;45.294;11.816;2022-08-20T08:58:41;100953.80;;;28.50
68939;BMP180;59064;45.294;11.816;2022-08-20T09:01:27;100953.60;;;28.50
68939;BMP180;59064;45.294;11.816;2022-08-20T09:03:53;100957.00;;;28.54
68939;BMP180;59064;45.294;11.816;2022-08-20T09:06:21;100959.80;;;28.80
68939;BMP180;59064;45.294;11.816;2022-08-20T09:08:57;100963.40;;;29.12
68939;BMP180;59064;45.294;11.816;2022-08-20T09:11:24;100957.80;;;29.30
68939;BMP180;59064;45.294;11.816;2022-08-20T09:13:50;100958.80;;;29.48
68939;BMP180;59064;45.294;11.816;2022-08-20T09:16:19;100961.00;;;29.80
68939;BMP180;59064;45.294;11.816;2022-08-20T09:18:44;100957.20;;;30.00
68939;BMP180;59064;45.294;11.816;2022-08-20T09:21:10;100963.80;;;30.04
68939;BMP180;59064;45.294;11.816;2022-08-20T09:23:36;100964.00;;;30.34
68939;BMP180;59064;45.294;11.816;2022-08-20T09:26:02;100964.40;;;30.60
68939;BMP180;59064;45.294;11.816;2022-08-20T09:28:27;100959.20;;;30.62
68939;BMP180;59064;45.294;11.816;2022-08-20T09:30:53;100963.80;;;31.04
68939;BMP180;59064;45.294;11.816;2022-08-20T09:33:19;100965.00;;;31.54
68939;BMP180;59064;45.294;11.816;2022-08-20T09:35:44;100963.60;;;31.90
68939;BMP180;59064;45.294;11.816;2022-08-20T09:38:11;100965.80;;;32.00
68939;BMP180;59064;45.294;11.816;2022-08-20T09:40:36;100963.20;;;31.90
68939;BMP180;59064;45.294;11.816;2022-08-20T09:43:04;100963.40;;;31.70
68939;BMP180;59064;45.294;11.816;2022-08-20T09:45:30;100963.20;;;31.66
68939;BMP180;59064;45.294;11.816;2022-08-20T09:47:56;100958.60;;;31.60
68939;BMP180;59064;45.294;11.816;2022-08-20T09:50:21;100957.60;;;31.82
68939;BMP180;59064;45.294;11.816;2022-08-20T09:52:49;100957.60;;;32.00
68939;BMP180;59064;45.294;11.816;2022-08-20T09:55:35;100954.40;;;32.00
68939;BMP180;59064;45.294;11.816;2022-08-20T09:58:06;100956.20;;;31.90
68939;BMP180;59064;45.294;11.816;2022-08-20T10:00:33;100958.80;;;32.08
68939;BMP180;59064;45.294;11.816;2022-08-20T10:02:59;100961.40;;;32.02
68939;BMP180;59064;45.294;11.816;2022-08-20T10:05:26;100962.20;;;31.90
68939;BMP180;59064;45.294;11.816;2022-08-20T10:07:54;100964.60;;;32.10
68939;BMP180;59064;45.294;11.816;2022-08-20T10:10:19;100965.20;;;32.40
68939;BMP180;59064;45.294;11.816;2022-08-20T10:12:45;100967.40;;;32.66
68939;BMP180;59064;45.294;11.816;2022-08-20T10:15:11;100967.60;;;32.88
68939;BMP180;59064;45.294;11.816;2022-08-20T10:17:39;100964.60;;;33.02
68939;BMP180;59064;45.294;11.816;2022-08-20T10:20:05;100965.80;;;33.10
68939;BMP180;59064;45.294;11.816;2022-08-20T10:22:31;100967.00;;;33.10
68939;BMP180;59064;45.294;11.816;2022-08-20T10:24:57;100964.80;;;33.10
68939;BMP180;59064;45.294;11.816;2022-08-20T10:27:22;100963.40;;;33.10
68939;BMP180;59064;45.294;11.816;2022-08-20T10:29:48;100964.80;;;33.20
68939;BMP180;59064;45.294;11.816;2022-08-20T10:32:15;100960.40;;;33.22
68939;BMP180;59064;45.294;11.816;2022-08-20T10:34:43;100963.20;;;33.30
68939;BMP180;59064;45.294;11.816;2022-08-20T10:37:17;100960.20;;;33.36
68939;BMP180;59064;45.294;11.816;2022-08-20T10:39:43;100964.20;;;33.30
68939;BMP180;59064;45.294;11.816;2022-08-20T10:42:09;100955.80;;;33.40
68939;BMP180;59064;45.294;11.816;2022-08-20T10:44:35;100953.40;;;33.20
68939;BMP180;59064;45.294;11.816;2022-08-20T10:49:49;100951.00;;;33.40
68939;BMP180;59064;45.294;11.816;2022-08-20T10:52:15;100948.80;;;33.38
68939;BMP180;59064;45.294;11.816;2022-08-20T10:54:40;100947.00;;;33.44
68939;BMP180;59064;45.294;11.816;2022-08-20T10:57:08;100952.20;;;33.70
68939;BMP180;59064;45.294;11.816;2022-08-20T10:59:42;100955.40;;;33.72
68939;BMP180;59064;45.294;11.816;2022-08-20T11:02:13;100953.20;;;33.90
68939;BMP180;59064;45.294;11.816;2022-08-20T11:04:39;100952.00;;;33.40
68939;BMP180;59064;45.294;11.816;2022-08-20T11:07:11;100951.60;;;33.20
68939;BMP180;59064;45.294;11.816;2022-08-20T11:09:37;100944.80;;;33.42
68939;BMP180;59064;45.294;11.816;2022-08-20T11:12:03;100945.20;;;33.30
68939;BMP180;59064;45.294;11.816;2022-08-20T11:14:28;100943.60;;;33.34
68939;BMP180;59064;45.294;11.816;2022-08-20T11:16:54;100946.00;;;33.50
68939;BMP180;59064;45.294;11.816;2022-08-20T11:19:19;100942.40;;;33.40
68939;BMP180;59064;45.294;11.816;2022-08-20T11:21:45;100938.40;;;33.20
68939;BMP180;59064;45.294;11.816;2022-08-20T11:24:10;100942.00;;;33.36
68939;BMP180;59064;45.294;11.816;2022-08-20T11:26:36;100940.00;;;33.72
68939;BMP180;59064;45.294;11.816;2022-08-20T11:29:02;100940.60;;;33.74
68939;BMP180;59064;45.294;11.816;2022-08-20T11:31:27;100939.80;;;33.98
68939;BMP180;59064;45.294;11.816;2022-08-20T11:33:52;100938.80;;;34.42
68939;BMP180;59064;45.294;11.816;2022-08-20T11:36:19;100930.80;;;34.86
68939;BMP180;59064;45.294;11.816;2022-08-20T11:38:44;100929.40;;;35.20
68939;BMP180;59064;45.294;11.816;2022-08-20T11:41:10;100919.40;;;35.30
68939;BMP180;59064;45.294;11.816;2022-08-20T11:43:35;100917.00;;;34.90
68939;BMP180;59064;45.294;11.816;2022-08-20T11:46:01;100917.20;;;34.58
68939;BMP180;59064;45.294;11.816;2022-08-20T11:48:26;100918.60;;;34.40
68939;BMP180;59064;45.294;11.816;2022-08-20T11:50:52;100918.80;;;34.40
68939;BMP180;59064;45.294;11.816;2022-08-20T11:53:17;100919.40;;;34.74
68939;BMP180;59064;45.294;11.816;2022-08-20T11:55:43;100914.80;;;35.10
68939;BMP180;59064;45.294;11.816;2022-08-20T11:58:09;100917.20;;;35.48
68939;BMP180;59064;45.294;11.816;2022-08-20T12:00:35;100916.80;;;35.20
68939;BMP180;59064;45.294;11.816;2022-08-20T12:03:01;100919.20;;;35.30
68939;BMP180;59064;45.294;11.816;2022-08-20T12:05:29;100922.00;;;35.74
68939;BMP180;59064;45.294;11.816;2022-08-20T12:07:55;100922.80;;;35.80
68939;BMP180;59064;45.294;11.816;2022-08-20T12:10:21;100920.00;;;35.82
68939;BMP180;59064;45.294;11.816;2022-08-20T12:12:48;100913.00;;;35.90
68939;BMP180;59064;45.294;11.816;2022-08-20T12:15:14;100918.60;;;35.60
68939;BMP180;59064;45.294;11.816;2022-08-20T12:17:39;100920.60;;;35.60
68939;BMP180;59064;45.294;11.816;2022-08-20T12:20:10;100916.40;;;35.86
68939;BMP180;59064;45.294;11.816;2022-08-20T12:22:36;100914.60;;;36.44
68939;BMP180;59064;45.294;11.816;2022-08-20T12:25:03;100919.80;;;36.80
68939;BMP180;59064;45.294;11.816;2022-08-20T12:27:32;100915.80;;;36.90
68939;BMP180;59064;45.294;11.816;2022-08-20T12:30:00;100910.80;;;36.80
68939;BMP180;59064;45.294;11.816;2022-08-20T12:32:28;100908.20;;;36.60
68939;BMP180;59064;45.294;11.816;2022-08-20T12:34:55;100904.60;;;36.30
68939;BMP180;59064;45.294;11.816;2022-08-20T12:37:23;100909.20;;;36.56
68939;BMP180;59064;45.294;11.816;2022-08-20T12:39:53;100907.00;;;36.70
68939;BMP180;59064;45.294;11.816;2022-08-20T12:42:19;100908.80;;;36.32
68939;BMP180;59064;45.294;11.816;2022-08-20T12:44:45;100910.60;;;36.70
68939;BMP180;59064;45.294;11.816;2022-08-20T12:47:17;100907.00;;;37.26
68939;BMP180;59064;45.294;11.816;2022-08-20T12:49:46;100905.80;;;37.60
68939;BMP180;59064;45.294;11.816;2022-08-20T12:52:14;100897.60;;;37.60
68939;BMP180;59064;45.294;11.816;2022-08-20T12:54:40;100902.00;;;37.68
68939;BMP180;59064;45.294;11.816;2022-08-20T12:57:05;100895.00;;;37.72
68939;BMP180;59064;45.294;11.816;2022-08-20T12:59:32;100892.00;;;37.60
68939;BMP180;59064;45.294;11.816;2022-08-20T13:01:58;100891.80;;;37.84
68939;BMP180;59064;45.294;11.816;2022-08-20T13:04:24;100892.20;;;38.30
68939;BMP180;59064;45.294;11.816;2022-08-20T13:06:49;100892.60;;;38.50
68939;BMP180;59064;45.294;11.816;2022-08-20T13:09:16;100888.40;;;38.48
68939;BMP180;59064;45.294;11.816;2022-08-20T13:11:42;100893.40;;;38.42
68939;BMP180;59064;45.294;11.816;2022-08-20T13:14:07;100894.80;;;38.50
68939;BMP180;59064;45.294;11.816;2022-08-20T13:16:33;100899.60;;;38.72
68939;BMP180;59064;45.294;11.816;2022-08-20T13:18:59;100903.20;;;38.90
68939;BMP180;59064;45.294;11.816;2022-08-20T13:21:24;100905.60;;;39.04
68939;BMP180;59064;45.294;11.816;2022-08-20T13:23:50;100910.40;;;39.60
68939;BMP180;59064;45.294;11.816;2022-08-20T13:26:16;100900.60;;;40.00
68939;BMP180;59064;45.294;11.816;2022-08-20T13:28:41;100906.00;;;39.80
68939;BMP180;59064;45.294;11.816;2022-08-20T13:31:07;100910.80;;;39.74
68939;BMP180;59064;45.294;11.816;2022-08-20T13:33:32;100911.40;;;39.26
68939;BMP180;59064;45.294;11.816;2022-08-20T13:35:58;100906.40;;;38.62
68939;BMP180;59064;45.294;11.816;2022-08-20T13:38:23;100908.80;;;37.70
68939;BMP180;59064;45.294;11.816;2022-08-20T13:40:49;100906.00;;;37.76
68939;BMP180;59064;45.294;11.816;2022-08-20T13:43:15;100913.60;;;37.64
68939;BMP180;59064;45.294;11.816;2022-08-20T13:45:40;100910.00;;;36.98
68939;BMP180;59064;45.294;11.816;2022-08-20T13:48:07;100914.20;;;37.14
68939;BMP180;59064;45.294;11.816;2022-08-20T13:50:33;100903.00;;;37.44
68939;BMP180;59064;45.294;11.816;2022-08-20T13:52:59;100902.20;;;37.74
68939;BMP180;59064;45.294;11.816;2022-08-20T13:55:26;100901.60;;;38.60
68939;BMP180;59064;45.294;11.816;2022-08-20T13:57:52;100901.80;;;39.50